createdAt,value
2018-05-07T00:01:28.333Z,2.40
2018-05-07T00:04:01.588Z,2.30
2018-05-07T00:06:34.090Z,2.70
2018-05-07T00:09:07.194Z,2.23
2018-05-07T00:11:39.669Z,2.57
2018-05-07T00:14:12.030Z,2.70
2018-05-07T00:16:44.549Z,2.60
2018-05-07T00:19:17.699Z,2.40
2018-05-07T00:21:50.177Z,2.50
2018-05-07T00:24:23.326Z,2.17
2018-05-07T00:26:55.802Z,2.63
2018-05-07T00:29:28.467Z,2.40
2018-05-07T00:32:01.166Z,2.20
2018-05-07T00:34:33.671Z,2.50
2018-05-07T00:37:06.222Z,2.60
2018-05-07T00:39:38.833Z,2.40
2018-05-07T00:42:11.284Z,2.20
2018-05-07T00:44:43.692Z,2.50
2018-05-07T00:47:16.129Z,2.60
2018-05-07T00:49:48.757Z,2.57
2018-05-07T00:52:21.185Z,2.60
2018-05-07T00:55:06.082Z,2.50
2018-05-07T00:57:38.671Z,2.20
2018-05-07T01:00:11.038Z,2.40
2018-05-07T01:02:44.139Z,2.73
2018-05-07T01:05:17.610Z,2.27
2018-05-07T01:07:50.262Z,2.50
2018-05-07T01:10:22.747Z,2.60
2018-05-07T01:12:55.911Z,2.60
2018-05-07T01:15:28.654Z,2.70
2018-05-07T01:18:01.754Z,2.47
2018-05-07T01:20:35.048Z,2.40
2018-05-07T01:23:07.455Z,2.90
2018-05-07T01:25:40.102Z,2.57
2018-05-07T01:28:13.408Z,2.50
2018-05-07T01:30:46.038Z,2.60
2018-05-07T01:33:18.672Z,3.87
2018-05-07T01:35:51.078Z,3.00
2018-05-07T01:38:23.732Z,2.47
2018-05-07T01:40:56.164Z,3.10
2018-05-07T01:43:29.356Z,3.80
2018-05-07T01:46:02.837Z,3.93
2018-05-07T01:48:35.748Z,4.03
2018-05-07T01:51:08.974Z,4.20
2018-05-07T01:53:41.444Z,3.93
2018-05-07T01:56:13.936Z,3.60
2018-05-07T01:58:46.354Z,3.23
2018-05-07T02:01:19.563Z,3.77
2018-05-07T02:03:51.994Z,4.53
2018-05-07T02:06:24.514Z,3.60
2018-05-07T02:08:56.937Z,3.33
2018-05-07T02:11:30.134Z,3.67
2018-05-07T02:14:02.516Z,3.27
2018-05-07T02:16:35.003Z,3.30
2018-05-07T02:19:07.489Z,3.10
2018-05-07T02:21:40.736Z,3.10
2018-05-07T02:24:13.147Z,3.13
2018-05-07T02:26:45.507Z,3.30
2018-05-07T02:29:18.013Z,2.93
2018-05-07T02:31:50.623Z,3.23
2018-05-07T02:34:23.099Z,3.40
2018-05-07T02:36:55.689Z,3.27
2018-05-07T02:39:29.148Z,2.90
2018-05-07T02:42:01.654Z,2.80
2018-05-07T02:44:34.828Z,3.00
2018-05-07T02:47:07.872Z,3.00
2018-05-07T02:49:40.414Z,2.80
2018-05-07T02:52:12.782Z,3.60
2018-05-07T02:54:45.376Z,3.33
2018-05-07T02:57:18.029Z,3.23
2018-05-07T02:59:50.668Z,2.80
2018-05-07T03:02:23.159Z,2.80
2018-05-07T03:04:56.351Z,2.80
2018-05-07T03:07:29.123Z,3.50
2018-05-07T03:10:02.413Z,3.10
2018-05-07T03:12:35.708Z,3.20
2018-05-07T03:15:08.948Z,3.40
2018-05-07T03:17:41.502Z,2.97
2018-05-07T03:20:13.969Z,3.57
2018-05-07T03:22:46.354Z,3.87
2018-05-07T03:25:18.888Z,3.87
2018-05-07T03:27:51.341Z,4.60
2018-05-07T03:30:23.846Z,4.17
2018-05-07T03:32:56.273Z,3.87
2018-05-07T03:35:29.656Z,3.50
2018-05-07T03:38:02.363Z,3.83
2018-05-07T03:40:34.733Z,3.20
2018-05-07T03:43:07.142Z,3.40
2018-05-07T03:45:39.683Z,3.43
2018-05-07T03:48:12.849Z,3.53
2018-05-07T03:50:45.337Z,3.17
2018-05-07T03:53:17.752Z,3.07
2018-05-07T03:55:50.188Z,3.50
2018-05-07T03:58:23.329Z,3.30
2018-05-07T04:00:56.831Z,3.50
2018-05-07T04:03:30.787Z,3.70
2018-05-07T04:06:03.212Z,3.40
2018-05-07T04:08:36.478Z,3.00
2018-05-07T04:11:09.693Z,3.50
2018-05-07T04:13:42.109Z,3.17
2018-05-07T04:16:26.961Z,3.47
2018-05-07T04:19:12.054Z,3.60
2018-05-07T04:21:57.148Z,3.20
2018-05-07T04:24:29.887Z,3.47
2018-05-07T04:27:03.240Z,3.10
2018-05-07T04:29:36.025Z,2.83
2018-05-07T04:32:08.596Z,3.30
2018-05-07T04:34:41.342Z,11.23
2018-05-07T04:37:14.348Z,11.97
2018-05-07T04:39:47.248Z,7.33
2018-05-07T04:42:20.943Z,5.27
2018-05-07T04:44:55.708Z,4.73
2018-05-07T04:47:28.747Z,3.77
2018-05-07T04:50:01.346Z,3.80
2018-05-07T04:52:34.013Z,3.30
2018-05-07T04:55:07.200Z,3.40
2018-05-07T04:57:40.395Z,3.40
2018-05-07T05:00:13.593Z,3.50
2018-05-07T05:02:46.249Z,3.10
2018-05-07T05:05:18.646Z,3.20
2018-05-07T05:07:51.728Z,3.60
2018-05-07T05:10:24.243Z,3.40
2018-05-07T05:12:56.917Z,3.30
2018-05-07T05:15:29.287Z,3.27
2018-05-07T05:18:01.634Z,3.90
2018-05-07T05:20:34.143Z,3.90
2018-05-07T05:23:06.577Z,3.60
2018-05-07T05:25:39.738Z,3.43
2018-05-07T05:28:12.369Z,3.53
2018-05-07T05:30:44.728Z,3.40
2018-05-07T05:33:17.506Z,3.13
2018-05-07T05:35:49.892Z,2.80
2018-05-07T05:38:22.544Z,3.40
2018-05-07T05:40:54.914Z,3.03
2018-05-07T05:43:28.076Z,3.00
2018-05-07T05:46:00.498Z,3.10
2018-05-07T05:48:32.879Z,2.80
2018-05-07T05:51:05.542Z,2.40
2018-05-07T05:53:38.762Z,2.60
2018-05-07T05:56:11.416Z,4.10
2018-05-07T05:58:44.161Z,3.40
2018-05-07T06:01:16.854Z,2.70
2018-05-07T06:03:49.711Z,2.70
2018-05-07T06:06:22.355Z,2.87
2018-05-07T06:08:54.915Z,2.60
2018-05-07T06:11:32.423Z,2.40
2018-05-07T06:14:05.580Z,2.47
2018-05-07T06:16:37.981Z,2.50
2018-05-07T06:19:10.435Z,2.57
2018-05-07T06:21:43.037Z,2.60
2018-05-07T06:24:15.675Z,2.27
2018-05-07T06:26:48.294Z,2.80
2018-05-07T06:29:20.955Z,3.87
2018-05-07T06:31:53.653Z,2.90
2018-05-07T06:34:26.358Z,2.30
2018-05-07T06:36:58.972Z,2.40
2018-05-07T06:39:32.322Z,2.40
2018-05-07T06:42:04.947Z,2.40
2018-05-07T06:44:37.639Z,2.70
2018-05-07T06:47:10.243Z,2.40
2018-05-07T06:49:43.528Z,2.43
2018-05-07T06:52:16.208Z,2.40
2018-05-07T06:54:49.323Z,2.20
2018-05-07T06:57:22.541Z,2.40
2018-05-07T06:59:55.085Z,2.20
2018-05-07T07:02:28.508Z,2.63
2018-05-07T07:05:01.620Z,2.30
2018-05-07T07:07:34.786Z,2.37
2018-05-07T07:10:07.484Z,2.63
2018-05-07T07:12:39.949Z,2.20
2018-05-07T07:15:12.592Z,2.07
2018-05-07T07:17:45.434Z,2.43
2018-05-07T07:20:18.702Z,2.20
2018-05-07T07:22:51.247Z,2.90
2018-05-07T07:25:23.714Z,2.20
2018-05-07T07:27:56.865Z,2.10
2018-05-07T07:30:29.233Z,2.47
2018-05-07T07:33:01.648Z,2.57
2018-05-07T07:35:34.043Z,2.53
2018-05-07T07:38:06.675Z,2.60
2018-05-07T07:40:39.144Z,2.07
2018-05-07T07:43:11.563Z,2.50
2018-05-07T07:45:44.174Z,2.40
2018-05-07T07:48:16.672Z,2.10
2018-05-07T07:50:49.230Z,2.63
2018-05-07T07:53:21.824Z,2.67
2018-05-07T07:55:54.304Z,2.40
2018-05-07T07:58:26.783Z,2.70
2018-05-07T08:00:59.389Z,2.10
2018-05-07T08:03:32.539Z,2.20
2018-05-07T08:06:05.643Z,2.60
2018-05-07T08:08:38.008Z,2.57
2018-05-07T08:11:10.493Z,2.62
2018-05-07T08:13:43.165Z,2.60
2018-05-07T08:16:15.983Z,2.67
2018-05-07T08:18:48.908Z,3.00
2018-05-07T08:21:22.459Z,2.30
2018-05-07T08:23:55.028Z,2.80
2018-05-07T08:26:28.195Z,2.83
2018-05-07T08:29:00.704Z,2.40
2018-05-07T08:31:33.421Z,2.53
2018-05-07T08:34:06.041Z,3.07
2018-05-07T08:36:38.439Z,2.30
2018-05-07T08:39:11.054Z,2.83
2018-05-07T08:41:43.849Z,2.50
2018-05-07T08:44:16.460Z,2.72
2018-05-07T08:46:49.019Z,2.30
2018-05-07T08:49:21.721Z,2.70
2018-05-07T08:51:55.064Z,2.97
2018-05-07T08:54:27.574Z,2.25
2018-05-07T08:56:59.959Z,2.40
2018-05-07T08:59:32.375Z,2.17
2018-05-07T09:02:04.982Z,2.37
2018-05-07T09:04:37.648Z,2.78
2018-05-07T09:07:10.072Z,2.40
2018-05-07T09:09:42.479Z,2.47
2018-05-07T09:12:15.070Z,2.50
2018-05-07T09:14:47.690Z,2.33
2018-05-07T09:17:20.108Z,2.25
2018-05-07T09:19:53.302Z,2.42
2018-05-07T09:22:26.712Z,2.37
2018-05-07T09:24:59.208Z,2.25
2018-05-07T09:27:31.867Z,2.45
2018-05-07T09:30:04.365Z,2.67
2018-05-07T09:32:37.034Z,2.40
2018-05-07T09:35:09.827Z,2.20
2018-05-07T09:37:42.371Z,2.40
2018-05-07T09:40:14.907Z,1.90
2018-05-07T09:42:48.095Z,2.40
2018-05-07T09:45:20.712Z,2.22
2018-05-07T09:47:53.293Z,2.20
2018-05-07T09:50:25.976Z,2.15
2018-05-07T09:52:58.538Z,2.30
2018-05-07T09:55:31.031Z,2.08
2018-05-07T09:58:04.354Z,2.12
2018-05-07T10:00:37.018Z,2.12
2018-05-07T10:03:10.455Z,1.90
2018-05-07T10:05:42.889Z,1.90
2018-05-07T10:08:15.709Z,2.00
2018-05-07T10:10:48.395Z,1.90
2018-05-07T10:13:20.938Z,2.40
2018-05-07T10:15:53.619Z,2.20
2018-05-07T10:18:26.810Z,2.03
2018-05-07T10:20:59.161Z,2.10
2018-05-07T10:23:31.516Z,2.00
2018-05-07T10:26:04.008Z,2.10
2018-05-07T10:28:36.567Z,2.15
2018-05-07T10:31:09.048Z,1.95
2018-05-07T10:33:41.645Z,1.90
2018-05-07T10:36:14.034Z,2.10
2018-05-07T10:38:46.430Z,2.30
2018-05-07T10:41:19.303Z,2.00
2018-05-07T10:43:51.738Z,2.10
2018-05-07T10:46:24.978Z,2.10
2018-05-07T10:48:57.568Z,2.20
2018-05-07T10:51:30.477Z,2.20
2018-05-07T10:54:03.137Z,2.20
2018-05-07T10:56:36.352Z,2.30
2018-05-07T10:59:08.885Z,2.10
2018-05-07T11:01:41.482Z,2.00
2018-05-07T11:04:14.090Z,1.77
2018-05-07T11:06:46.599Z,1.95
2018-05-07T11:09:19.472Z,1.80
2018-05-07T11:11:52.052Z,1.87
2018-05-07T11:14:24.673Z,1.83
2018-05-07T11:16:57.292Z,1.70
2018-05-07T11:19:30.496Z,2.00
2018-05-07T11:22:03.266Z,1.80
2018-05-07T11:24:35.897Z,1.90
2018-05-07T11:27:08.700Z,2.10
2018-05-07T11:29:41.323Z,1.98
2018-05-07T11:32:13.959Z,2.30
2018-05-07T11:34:46.597Z,3.15
2018-05-07T11:37:19.264Z,3.15
2018-05-07T11:39:51.722Z,2.55
2018-05-07T11:42:24.322Z,1.85
2018-05-07T11:44:56.938Z,2.20
2018-05-07T11:47:30.162Z,1.60
2018-05-07T11:50:03.433Z,1.98
2018-05-07T11:52:35.950Z,1.75
2018-05-07T11:55:09.115Z,1.80
2018-05-07T11:57:41.577Z,2.90
2018-05-07T12:00:14.332Z,2.08
2018-05-07T12:02:47.736Z,1.77
2018-05-07T12:05:20.202Z,1.85
2018-05-07T12:07:52.965Z,1.70
2018-05-07T12:10:25.525Z,1.73
2018-05-07T12:12:58.308Z,1.75
2018-05-07T12:15:30.762Z,2.25
2018-05-07T12:18:04.444Z,1.73
2018-05-07T12:20:37.871Z,1.87
2018-05-07T12:23:10.501Z,2.30
2018-05-07T12:25:43.649Z,1.80
2018-05-07T12:28:16.838Z,1.80
2018-05-07T12:30:50.028Z,2.15
2018-05-07T12:33:22.398Z,1.90
2018-05-07T12:35:54.810Z,1.80
2018-05-07T12:38:27.465Z,2.12
2018-05-07T12:40:59.952Z,1.92
2018-05-07T12:43:32.440Z,1.98
2018-05-07T12:46:05.052Z,2.15
2018-05-07T12:48:37.585Z,1.90
2018-05-07T12:51:10.104Z,2.25
2018-05-07T12:53:42.483Z,1.90
2018-05-07T12:56:14.996Z,1.90
2018-05-07T12:58:47.661Z,2.15
2018-05-07T13:01:20.122Z,2.00
2018-05-07T13:03:53.291Z,2.17
2018-05-07T13:06:25.807Z,2.80
2018-05-07T13:08:58.195Z,2.10
2018-05-07T13:11:30.699Z,2.12
2018-05-07T13:14:03.388Z,2.00
2018-05-07T13:16:37.342Z,1.87
2018-05-07T13:19:09.898Z,2.33
2018-05-07T13:21:43.098Z,2.05
2018-05-07T13:24:15.743Z,1.85
2018-05-07T13:26:48.395Z,1.98
2018-05-07T13:29:20.911Z,1.85
2018-05-07T13:31:53.519Z,2.17
2018-05-07T13:34:26.810Z,1.80
2018-05-07T13:36:59.285Z,1.65
2018-05-07T13:39:31.865Z,2.03
2018-05-07T13:42:05.275Z,1.92
2018-05-07T13:44:38.452Z,2.20
2018-05-07T13:47:11.298Z,2.12
2018-05-07T13:49:43.874Z,1.87
2018-05-07T13:52:16.543Z,1.80
2018-05-07T13:54:49.689Z,1.92
2018-05-07T13:57:22.845Z,1.85
2018-05-07T13:59:55.314Z,1.80
2018-05-07T14:02:28.475Z,1.98
2018-05-07T14:05:00.870Z,1.80
2018-05-07T14:07:33.523Z,1.80
2018-05-07T14:10:06.219Z,1.80
2018-05-07T14:12:38.834Z,2.03
2018-05-07T14:15:11.233Z,1.85
2018-05-07T14:17:43.654Z,2.00
2018-05-07T14:20:16.208Z,1.73
2018-05-07T14:22:48.737Z,1.80
2018-05-07T14:25:21.287Z,1.55
2018-05-07T14:27:53.869Z,1.70
2018-05-07T14:30:26.539Z,2.15
2018-05-07T14:32:59.168Z,7.70
2018-05-07T14:35:31.768Z,1.40
2018-05-07T14:38:04.263Z,1.62
2018-05-07T14:40:36.973Z,1.42
2018-05-07T14:43:09.675Z,1.60
2018-05-07T14:45:42.841Z,1.40
2018-05-07T14:48:15.870Z,1.52
2018-05-07T14:50:48.547Z,1.75
2018-05-07T14:53:20.910Z,1.70
2018-05-07T14:55:53.378Z,1.50
2018-05-07T14:58:26.822Z,1.70
2018-05-07T15:00:59.720Z,1.60
2018-05-07T15:03:33.018Z,1.52
2018-05-07T15:06:05.495Z,1.67
2018-05-07T15:08:38.240Z,1.50
2018-05-07T15:11:10.649Z,1.55
2018-05-07T15:13:43.129Z,1.40
2018-05-07T15:16:16.024Z,1.50
2018-05-07T15:18:48.526Z,1.30
2018-05-07T15:21:21.247Z,1.25
2018-05-07T15:23:54.705Z,1.60
2018-05-07T15:26:27.132Z,2.40
2018-05-07T15:28:59.929Z,1.52
2018-05-07T15:31:32.453Z,1.98
2018-05-07T15:34:05.743Z,1.87
2018-05-07T15:36:38.918Z,1.60
2018-05-07T15:39:12.145Z,1.37
2018-05-07T15:41:45.360Z,1.50
2018-05-07T15:44:18.539Z,1.77
2018-05-07T15:46:51.164Z,1.60
2018-05-07T15:49:24.741Z,1.27
2018-05-07T15:51:57.243Z,1.50
2018-05-07T15:54:30.145Z,1.20
2018-05-07T15:57:02.694Z,1.35
2018-05-07T15:59:35.199Z,3.10
2018-05-07T16:02:07.799Z,1.70
2018-05-07T16:04:40.610Z,1.42
2018-05-07T16:07:14.732Z,2.30
2018-05-07T16:09:47.444Z,1.52
2018-05-07T16:12:20.631Z,1.58
2018-05-07T16:14:53.118Z,1.40
2018-05-07T16:17:26.428Z,1.50
2018-05-07T16:19:59.626Z,1.50
2018-05-07T16:22:32.223Z,1.50
2018-05-07T16:25:05.605Z,1.70
2018-05-07T16:27:38.085Z,3.80
2018-05-07T16:30:10.718Z,1.40
2018-05-07T16:32:43.345Z,1.48
2018-05-07T16:35:16.014Z,1.40
2018-05-07T16:37:49.429Z,1.83
2018-05-07T16:40:22.109Z,1.70
2018-05-07T16:42:54.923Z,1.65
2018-05-07T16:45:27.423Z,1.62
2018-05-07T16:47:59.929Z,1.60
2018-05-07T16:50:32.572Z,1.62
2018-05-07T16:53:05.179Z,1.60
2018-05-07T16:55:37.891Z,1.30
2018-05-07T16:58:10.609Z,1.50
2018-05-07T17:00:43.145Z,1.73
2018-05-07T17:03:16.434Z,2.00
2018-05-07T17:05:49.189Z,3.80
2018-05-07T17:08:21.991Z,2.55
2018-05-07T17:10:55.362Z,2.35
2018-05-07T17:13:27.986Z,2.62
2018-05-07T17:16:00.675Z,2.00
2018-05-07T17:18:33.434Z,1.62
2018-05-07T17:21:06.058Z,1.60
2018-05-07T17:23:38.528Z,1.75
2018-05-07T17:26:11.960Z,1.77
2018-05-07T17:28:45.153Z,1.77
2018-05-07T17:31:18.032Z,1.30
2018-05-07T17:33:51.131Z,1.52
2018-05-07T17:36:23.764Z,1.55
2018-05-07T17:38:56.469Z,1.65
2018-05-07T17:41:29.657Z,1.58
2018-05-07T17:44:14.393Z,1.92
2018-05-07T17:46:59.309Z,1.60
2018-05-07T17:49:32.832Z,2.10
2018-05-07T17:52:05.433Z,2.00
2018-05-07T17:54:38.327Z,1.80
2018-05-07T17:57:10.895Z,1.40
2018-05-07T17:59:43.734Z,1.52
2018-05-07T18:02:16.360Z,1.52
2018-05-07T18:04:49.104Z,1.45
2018-05-07T18:07:21.744Z,1.55
2018-05-07T18:09:54.309Z,1.37
2018-05-07T18:12:27.748Z,2.12
2018-05-07T18:15:00.255Z,2.25
2018-05-07T18:17:32.990Z,2.00
2018-05-07T18:20:05.925Z,1.83
2018-05-07T18:22:39.269Z,2.40
2018-05-07T18:25:12.007Z,2.35
2018-05-07T18:27:44.686Z,2.30
2018-05-07T18:30:17.295Z,2.25
2018-05-07T18:32:50.066Z,2.50
2018-05-07T18:35:22.695Z,2.55
2018-05-07T18:37:55.595Z,2.55
2018-05-07T18:40:28.332Z,2.70
2018-05-07T18:43:01.105Z,2.42
2018-05-07T18:45:33.832Z,2.28
2018-05-07T18:48:06.495Z,2.60
2018-05-07T18:50:39.125Z,2.50
2018-05-07T18:53:12.048Z,2.35
2018-05-07T18:55:45.443Z,2.30
2018-05-07T18:58:18.080Z,2.00
2018-05-07T19:00:50.763Z,2.50
2018-05-07T19:03:23.442Z,2.17
2018-05-07T19:05:56.360Z,2.40
2018-05-07T19:08:30.175Z,2.42
2018-05-07T19:11:03.058Z,2.62
2018-05-07T19:13:35.847Z,2.12
2018-05-07T19:16:08.605Z,2.35
2018-05-07T19:18:41.275Z,2.78
2018-05-07T19:21:14.037Z,2.70
2018-05-07T19:23:46.738Z,2.90
2018-05-07T19:26:19.416Z,2.95
2018-05-07T19:28:56.194Z,2.50
2018-05-07T19:31:29.020Z,3.00
2018-05-07T19:34:01.755Z,2.80
2018-05-07T19:36:34.466Z,2.62
2018-05-07T19:39:07.051Z,2.58
2018-05-07T19:41:39.646Z,2.87
2018-05-07T19:44:12.521Z,2.78
2018-05-07T19:46:45.016Z,2.50
2018-05-07T19:49:17.824Z,2.77
2018-05-07T19:51:50.467Z,2.90
2018-05-07T19:54:23.161Z,3.00
2018-05-07T19:56:56.738Z,2.97
2018-05-07T19:59:29.506Z,3.30
2018-05-07T20:02:02.128Z,2.67
2018-05-07T20:04:34.785Z,2.73
2018-05-07T20:07:07.661Z,2.10
2018-05-07T20:09:40.941Z,2.30
2018-05-07T20:12:13.719Z,2.20
2018-05-07T20:14:46.411Z,2.10
2018-05-07T20:17:19.032Z,2.60
2018-05-07T20:19:52.374Z,2.60
2018-05-07T20:22:25.979Z,2.73
2018-05-07T20:24:59.154Z,2.53
2018-05-07T20:27:31.728Z,2.40
2018-05-07T20:30:04.180Z,2.67
2018-05-07T20:32:37.008Z,2.80
2018-05-07T20:35:09.555Z,2.50
2018-05-07T20:37:42.421Z,2.73
2018-05-07T20:40:15.393Z,2.40
2018-05-07T20:42:47.938Z,2.60
2018-05-07T20:45:20.662Z,2.50
2018-05-07T20:47:53.464Z,2.43
2018-05-07T20:50:26.044Z,2.43
2018-05-07T20:52:58.950Z,2.20
2018-05-07T20:55:32.100Z,2.27
2018-05-07T20:58:04.563Z,2.20
2018-05-07T21:00:37.301Z,1.90
2018-05-07T21:03:09.923Z,1.97
2018-05-07T21:05:43.215Z,1.93
2018-05-07T21:08:15.606Z,2.30
2018-05-07T21:10:48.060Z,2.10
2018-05-07T21:13:20.854Z,2.40
2018-05-07T21:15:53.375Z,2.40
2018-05-07T21:18:26.097Z,2.23
2018-05-07T21:20:58.603Z,2.23
2018-05-07T21:23:31.850Z,2.47
2018-05-07T21:26:04.685Z,2.70
2018-05-07T21:28:37.118Z,2.50
2018-05-07T21:31:09.691Z,2.60
2018-05-07T21:33:42.438Z,2.30
2018-05-07T21:36:14.961Z,2.30
2018-05-07T21:38:48.264Z,2.30
2018-05-07T21:41:20.923Z,2.60
2018-05-07T21:43:53.620Z,2.70
2018-05-07T21:46:26.318Z,2.50
2018-05-07T21:48:59.596Z,2.83
2018-05-07T21:51:33.005Z,2.40
2018-05-07T21:54:06.233Z,2.60
2018-05-07T21:56:38.782Z,2.60
2018-05-07T21:59:11.402Z,2.33
2018-05-07T22:01:44.789Z,2.40
2018-05-07T22:04:17.435Z,2.20
2018-05-07T22:06:50.322Z,2.60
2018-05-07T22:09:22.991Z,2.43
2018-05-07T22:11:55.907Z,2.37
2018-05-07T22:14:28.643Z,2.83
2018-05-07T22:17:01.240Z,2.40
2018-05-07T22:19:33.637Z,2.57
2018-05-07T22:22:06.194Z,2.67
2018-05-07T22:24:38.780Z,2.50
2018-05-07T22:27:11.445Z,2.67
2018-05-07T22:29:44.799Z,2.67
2018-05-07T22:32:18.221Z,2.90
2018-05-07T22:34:50.653Z,3.00
2018-05-07T22:37:23.219Z,3.10
2018-05-07T22:39:55.790Z,2.90
2018-05-07T22:42:28.556Z,2.87
2018-05-07T22:45:01.079Z,2.60
2018-05-07T22:47:33.525Z,2.80
2018-05-07T22:50:05.964Z,2.60
2018-05-07T22:52:38.668Z,2.60
2018-05-07T22:55:20.276Z,2.60
2018-05-07T22:57:52.670Z,2.83
2018-05-07T23:00:25.049Z,2.80
2018-05-07T23:02:57.578Z,2.73
2018-05-07T23:05:30.304Z,2.53
2018-05-07T23:08:02.924Z,2.60
2018-05-07T23:10:36.128Z,2.27
2018-05-07T23:13:08.887Z,2.40
2018-05-07T23:15:41.538Z,2.20
2018-05-07T23:18:14.027Z,2.50
2018-05-07T23:20:46.744Z,2.70
2018-05-07T23:23:20.594Z,2.63
2018-05-07T23:25:53.369Z,2.60
2018-05-07T23:28:26.412Z,2.07
2018-05-07T23:30:59.591Z,2.30
2018-05-07T23:33:31.932Z,2.87
2018-05-07T23:36:05.054Z,2.60
2018-05-07T23:38:37.484Z,2.43
2018-05-07T23:41:10.194Z,2.10
2018-05-07T23:43:43.578Z,2.73
2018-05-07T23:46:16.152Z,2.60
2018-05-07T23:48:48.834Z,2.33
2018-05-07T23:51:22.155Z,2.37
2018-05-07T23:53:54.478Z,2.60
2018-05-07T23:56:27.268Z,2.40
2018-05-07T23:58:59.828Z,2.60
